D/T METAR WX W/DIR W/SPE G/SPE TEMP DEWP
20/02/20 07:20 EGNH 200720Z 22022KT 8000 RA BKN023 09/07 Q0997 RA SW (220°) 25.3mph 9°C 7°C
20/02/20 06:50 EGNH 200650Z 22019KT 9999 BKN024 09/07 Q0998 SW (220°) 21.9mph 9°C 7°C
20/02/20 06:20 EGNH 200620Z 21019KT 9999 BKN023 09/07 Q0998 SSW (210°) 21.9mph 9°C 7°C
19/02/20 20:50 EGNH 192050Z 25025KT 4000 -RADZ OVC012 09/08 Q1006 -RA -DZ WSW (250°) 28.8mph 9°C 8°C
19/02/20 20:20 EGNH 192020Z 24024KT 4000 -RADZ OVC012 09/08 Q1006 -RA -DZ WSW (240°) 27.6mph 9°C 8°C
19/02/20 19:50 EGNH 191950Z 24025KT 9000 -RA BKN012 BKN028 09/08 Q1007 -RA WSW (240°) 28.8mph 9°C 8°C
19/02/20 19:20 EGNH 191920Z 24026KT 9000 -RA SCT012 BKN028 08/08 Q1007 -RA WSW (240°) 29.9mph 8°C 8°C
19/02/20 18:50 EGNH 191850Z 24025KT 4000 -RADZ BR SCT012 BKN018 08/07 Q1007 -RA -DZ BR WSW (240°) 28.8mph 8°C 7°C
19/02/20 18:20 EGNH 191820Z 24021KT 4500 -RA SCT012 BKN018 08/08 Q1007 -RA WSW (240°) 24.2mph 8°C 8°C
19/02/20 17:50 EGNH 191750Z 23018KT 4500 -RA FEW005 BKN010 08/07 Q1008 -RA SW (230°) 20.7mph 8°C 7°C
19/02/20 17:20 EGNH 191720Z 23015KT 4500 -RA FEW006 BKN012 08/07 Q1008 -RA SW (230°) 17.3mph 8°C 7°C
19/02/20 16:50 EGNH 191650Z 22015KT 4500 -RA SCT004 BKN010 08/07 Q1008 -RA SW (220°) 17.3mph 8°C 7°C
19/02/20 16:20 EGNH 191620Z 21015KT 4500 -RA OVC004 08/07 Q1009 -RA SSW (210°) 17.3mph 8°C 7°C
19/02/20 15:50 EGNH 191550Z 19012KT 9000 -RA FEW006 BKN008 07/06 Q1009 -RA S (190°) 13.8mph 7°C 6°C
19/02/20 15:20 EGNH 191520Z 19014KT 9000 -RA FEW009 BKN014 07/06 Q1010 -RA S (190°) 16.1mph 7°C 6°C
19/02/20 14:50 EGNH 191450Z 18015KT 9000 -RA SCT010 BKN017 06/06 Q1010 -RA S (180°) 17.3mph 6°C 6°C
19/02/20 14:20 EGNH 191420Z 18015KT 9000 -RA SCT010 BKN018 06/06 Q1011 -RA S (180°) 17.3mph 6°C 6°C
19/02/20 13:50 EGNH 191350Z 17014KT 9000 -RA SCT022 06/05 Q1012 -RA S (170°) 16.1mph 6°C 5°C
19/02/20 13:20 EGNH 191320Z 18014KT 9000 -RA SCT020 06/05 Q1013 -RA S (180°) 16.1mph 6°C 5°C
19/02/20 12:50 EGNH 191250Z 18013KT 9000 -RA SCT023 06/05 Q1013 -RA S (180°) 15.0mph 6°C 5°C
19/02/20 12:20 EGNH 191220Z 19013KT 9000 -RA BKN022 06/05 Q1014 -RA S (190°) 15.0mph 6°C 5°C
19/02/20 11:50 EGNH 191150Z 21012KT 8000 -RA SCT016 BKN033 06/04 Q1015 -RA SSW (210°) 13.8mph 6°C 4°C
19/02/20 11:20 EGNH 191120Z 24016KT 9000 -RA BKN015 06/04 Q1015 -RA WSW (240°) 18.4mph 6°C 4°C
19/02/20 10:50 EGNH 191050Z 25018KT 9000 -RA FEW015 SCT023 06/04 Q1016 -RA WSW (250°) 20.7mph 6°C 4°C
19/02/20 10:20 EGNH 191020Z 26018KT 9999 -RA SCT027 06/04 Q1016 -RA W (260°) 20.7mph 6°C 4°C
19/02/20 09:50 EGNH 190950Z 26017KT 9999 FEW046 07/04 Q1016 W (260°) 19.6mph 7°C 4°C
19/02/20 09:20 EGNH 190920Z 26016KT 9999 FEW019 06/04 Q1016 W (260°) 18.4mph 6°C 4°C
19/02/20 08:50 EGNH 190850Z 26016KT 9999 FEW019 06/04 Q1016 W (260°) 18.4mph 6°C 4°C
19/02/20 08:20 EGNH 190820Z 27020KT 9999 FEW020 06/04 Q1016 W (270°) 23.0mph 6°C 4°C
19/02/20 07:50 EGNH 190750Z 26018KT 9999 SCT015 06/03 Q1016 W (260°) 20.7mph 6°C 3°C
19/02/20 07:20 EGNH 190720Z 28018KT 9999 FEW030 06/03 Q1016 W (280°) 20.7mph 6°C 3°C
19/02/20 06:50 EGNH 190650Z 28018KT 9999 FEW025 06/03 Q1016 W (280°) 20.7mph 6°C 3°C
19/02/20 06:20 EGNH 190620Z 28021KT 9999 FEW018 06/03 Q1016 W (280°) 24.2mph 6°C 3°C
18/02/20 20:50 EGNH 182050Z 29023KT 9999 SCT027 06/02 Q1011 WNW (290°) 26.5mph 6°C 2°C
18/02/20 20:20 EGNH 182020Z 28020KT 9999 SCT025 06/02 Q1011 W (280°) 23.0mph 6°C 2°C
18/02/20 19:20 EGNH 181920Z 29019KT 9999 SCT026 06/03 Q1011 WNW (290°) 21.9mph 6°C 3°C
18/02/20 18:50 EGNH 181850Z 30017KT 9999 SCT020 06/03 Q1010 WNW (300°) 19.6mph 6°C 3°C
18/02/20 18:20 EGNH 181820Z 27020KT 9999 SCT028 05/03 Q1010 W (270°) 23.0mph 5°C 3°C
18/02/20 17:50 EGNH 181750Z 27021KT 9999 VCSH SCT027 06/03 Q1009 VCSH W (270°) 24.2mph 6°C 3°C
18/02/20 17:20 EGNH 181720Z 29018KT 9999 VCSH FEW010 SCT030 06/03 Q1009 VCSH WNW (290°) 20.7mph 6°C 3°C
18/02/20 16:50 EGNH 181650Z 31019KT 9999 VCSH FEW008 SCT030 05/02 Q1009 VCSH NW (310°) 21.9mph 5°C 2°C
18/02/20 16:20 EGNH 181620Z 28025G37KT 9999 FEW020 SCT027 07/04 Q1009 W (280°) 28.8mph 42.6mph 7°C 4°C
18/02/20 15:50 EGNH 181550Z 28023KT 9999 FEW026 08/05 Q1009 W (280°) 26.5mph 8°C 5°C
18/02/20 15:20 EGNH 181520Z 28026KT 9999 FEW010 SCT035 07/04 Q1009 W (280°) 29.9mph 7°C 4°C
18/02/20 14:50 EGNH 181450Z 29024G35KT 7000 FEW010 SCT020 06/04 Q1009 RESHRA WNW (290°) 27.6mph 40.3mph 6°C 4°C
18/02/20 14:20 EGNH 181420Z 25025KT 7000 VCSH FEW015 BKN040 08/06 Q1009 VCSH WSW (250°) 28.8mph 8°C 6°C
18/02/20 13:50 EGNH 181350Z 25028KT 9999 FEW015 BKN027 08/05 Q1009 WSW (250°) 32.2mph 8°C 5°C
18/02/20 13:20 EGNH 181320Z 25027G37KT 9999 FEW015 BKN028 08/05 Q1009 WSW (250°) 31.1mph 42.6mph 8°C 5°C